sensor_id;sensor_type;location;lat;lon;timestamp;temperature;humidity
6988;DHT22;3534;49.960;8.018;2023-06-05T00:00:41;18.70;56.10
6988;DHT22;3534;49.960;8.018;2023-06-05T00:03:07;18.70;56.80
6988;DHT22;3534;49.960;8.018;2023-06-05T00:05:35;18.70;56.40
6988;DHT22;3534;49.960;8.018;2023-06-05T00:08:02;18.60;56.30
6988;DHT22;3534;49.960;8.018;2023-06-05T00:10:29;18.60;56.60
6988;DHT22;3534;49.960;8.018;2023-06-05T00:12:55;18.50;56.60
6988;DHT22;3534;49.960;8.018;2023-06-05T00:15:22;18.50;56.70
6988;DHT22;3534;49.960;8.018;2023-06-05T00:17:49;18.50;56.80
6988;DHT22;3534;49.960;8.018;2023-06-05T00:20:16;18.50;57.00
6988;DHT22;3534;49.960;8.018;2023-06-05T00:22:44;18.50;57.00
6988;DHT22;3534;49.960;8.018;2023-06-05T00:25:12;18.50;57.30
6988;DHT22;3534;49.960;8.018;2023-06-05T00:27:39;18.40;57.50
6988;DHT22;3534;49.960;8.018;2023-06-05T00:30:07;18.40;57.70
6988;DHT22;3534;49.960;8.018;2023-06-05T00:32:34;18.30;58.00
6988;DHT22;3534;49.960;8.018;2023-06-05T00:35:01;18.30;58.20
6988;DHT22;3534;49.960;8.018;2023-06-05T00:37:27;18.30;58.60
6988;DHT22;3534;49.960;8.018;2023-06-05T00:39:55;18.30;58.60
6988;DHT22;3534;49.960;8.018;2023-06-05T00:42:22;18.20;58.60
6988;DHT22;3534;49.960;8.018;2023-06-05T00:44:49;18.20;58.80
6988;DHT22;3534;49.960;8.018;2023-06-05T00:47:15;18.20;58.90
6988;DHT22;3534;49.960;8.018;2023-06-05T00:49:42;18.10;59.10
6988;DHT22;3534;49.960;8.018;2023-06-05T00:52:09;18.10;59.10
6988;DHT22;3534;49.960;8.018;2023-06-05T00:54:36;18.00;59.30
6988;DHT22;3534;49.960;8.018;2023-06-05T00:57:04;17.90;59.30
6988;DHT22;3534;49.960;8.018;2023-06-05T00:59:33;17.90;59.50
6988;DHT22;3534;49.960;8.018;2023-06-05T01:02:00;17.80;60.00
6988;DHT22;3534;49.960;8.018;2023-06-05T01:04:27;17.70;59.30
6988;DHT22;3534;49.960;8.018;2023-06-05T01:06:54;17.60;59.30
6988;DHT22;3534;49.960;8.018;2023-06-05T01:09:22;17.60;59.70
6988;DHT22;3534;49.960;8.018;2023-06-05T01:11:53;17.50;59.80
6988;DHT22;3534;49.960;8.018;2023-06-05T01:14:24;17.40;60.20
6988;DHT22;3534;49.960;8.018;2023-06-05T01:16:56;17.30;60.50
6988;DHT22;3534;49.960;8.018;2023-06-05T01:19:26;17.30;60.80
6988;DHT22;3534;49.960;8.018;2023-06-05T01:21:54;17.20;61.20
6988;DHT22;3534;49.960;8.018;2023-06-05T01:24:22;17.10;61.50
6988;DHT22;3534;49.960;8.018;2023-06-05T01:26:59;17.10;61.90
6988;DHT22;3534;49.960;8.018;2023-06-05T01:29:32;17.00;62.50
6988;DHT22;3534;49.960;8.018;2023-06-05T01:32:04;17.00;62.90
6988;DHT22;3534;49.960;8.018;2023-06-05T01:34:32;16.90;63.30
6988;DHT22;3534;49.960;8.018;2023-06-05T01:37:01;16.90;63.70
6988;DHT22;3534;49.960;8.018;2023-06-05T01:39:30;16.90;63.90
6988;DHT22;3534;49.960;8.018;2023-06-05T01:41:58;16.80;64.30
6988;DHT22;3534;49.960;8.018;2023-06-05T01:44:26;16.80;64.70
6988;DHT22;3534;49.960;8.018;2023-06-05T01:46:52;16.80;65.20
6988;DHT22;3534;49.960;8.018;2023-06-05T01:49:19;16.70;65.60
6988;DHT22;3534;49.960;8.018;2023-06-05T01:51:47;16.70;66.00
6988;DHT22;3534;49.960;8.018;2023-06-05T01:54:13;16.60;66.60
6988;DHT22;3534;49.960;8.018;2023-06-05T01:56:42;16.60;66.90
6988;DHT22;3534;49.960;8.018;2023-06-05T01:59:09;16.60;67.40
6988;DHT22;3534;49.960;8.018;2023-06-05T02:01:35;16.50;67.90
6988;DHT22;3534;49.960;8.018;2023-06-05T02:04:02;16.50;68.30
6988;DHT22;3534;49.960;8.018;2023-06-05T02:06:34;16.40;68.70
6988;DHT22;3534;49.960;8.018;2023-06-05T02:09:07;16.40;69.20
6988;DHT22;3534;49.960;8.018;2023-06-05T02:11:36;16.40;70.00
6988;DHT22;3534;49.960;8.018;2023-06-05T02:14:04;16.30;70.50
6988;DHT22;3534;49.960;8.018;2023-06-05T02:16:33;16.30;71.10
6988;DHT22;3534;49.960;8.018;2023-06-05T02:19:01;16.30;71.60
6988;DHT22;3534;49.960;8.018;2023-06-05T02:21:29;16.20;71.80
6988;DHT22;3534;49.960;8.018;2023-06-05T02:23:57;16.10;72.30
6988;DHT22;3534;49.960;8.018;2023-06-05T02:26:24;16.20;73.00
6988;DHT22;3534;49.960;8.018;2023-06-05T02:28:51;16.10;73.40
6988;DHT22;3534;49.960;8.018;2023-06-05T02:31:21;16.10;73.90
6988;DHT22;3534;49.960;8.018;2023-06-05T02:33:51;16.10;74.60
6988;DHT22;3534;49.960;8.018;2023-06-05T02:36:17;16.00;74.80
6988;DHT22;3534;49.960;8.018;2023-06-05T02:38:45;16.00;75.40
6988;DHT22;3534;49.960;8.018;2023-06-05T02:41:13;15.90;76.00
6988;DHT22;3534;49.960;8.018;2023-06-05T02:43:40;15.90;76.70
6988;DHT22;3534;49.960;8.018;2023-06-05T02:46:07;15.90;77.20
6988;DHT22;3534;49.960;8.018;2023-06-05T02:48:35;15.90;77.30
6988;DHT22;3534;49.960;8.018;2023-06-05T02:51:01;15.80;77.80
6988;DHT22;3534;49.960;8.018;2023-06-05T02:53:29;15.80;77.80
6988;DHT22;3534;49.960;8.018;2023-06-05T02:55:55;15.80;78.60
6988;DHT22;3534;49.960;8.018;2023-06-05T02:58:24;15.70;79.20
6988;DHT22;3534;49.960;8.018;2023-06-05T03:00:53;15.70;79.60
6988;DHT22;3534;49.960;8.018;2023-06-05T03:03:21;15.70;80.20
6988;DHT22;3534;49.960;8.018;2023-06-05T03:05:52;15.70;80.90
6988;DHT22;3534;49.960;8.018;2023-06-05T03:08:19;15.70;82.00
6988;DHT22;3534;49.960;8.018;2023-06-05T03:10:46;15.60;83.00
6988;DHT22;3534;49.960;8.018;2023-06-05T03:13:12;15.60;84.00
6988;DHT22;3534;49.960;8.018;2023-06-05T03:15:39;15.60;84.30
6988;DHT22;3534;49.960;8.018;2023-06-05T03:18:07;15.50;85.40
6988;DHT22;3534;49.960;8.018;2023-06-05T03:20:34;15.50;86.30
6988;DHT22;3534;49.960;8.018;2023-06-05T03:23:02;15.50;87.30
6988;DHT22;3534;49.960;8.018;2023-06-05T03:25:29;15.40;88.50
6988;DHT22;3534;49.960;8.018;2023-06-05T03:27:56;15.40;89.70
6988;DHT22;3534;49.960;8.018;2023-06-05T03:30:22;15.40;90.20
6988;DHT22;3534;49.960;8.018;2023-06-05T03:32:49;15.40;90.60
6988;DHT22;3534;49.960;8.018;2023-06-05T03:35:16;15.30;91.30
6988;DHT22;3534;49.960;8.018;2023-06-05T03:37:43;15.30;91.90
6988;DHT22;3534;49.960;8.018;2023-06-05T03:40:12;15.20;92.40
6988;DHT22;3534;49.960;8.018;2023-06-05T03:42:39;15.20;92.90
6988;DHT22;3534;49.960;8.018;2023-06-05T03:45:06;15.20;93.40
6988;DHT22;3534;49.960;8.018;2023-06-05T03:47:34;15.20;93.90
6988;DHT22;3534;49.960;8.018;2023-06-05T03:50:01;15.20;93.90
6988;DHT22;3534;49.960;8.018;2023-06-05T03:52:28;15.20;94.30
6988;DHT22;3534;49.960;8.018;2023-06-05T03:54:54;15.20;94.70
6988;DHT22;3534;49.960;8.018;2023-06-05T03:57:22;15.20;95.00
6988;DHT22;3534;49.960;8.018;2023-06-05T03:59:49;15.20;95.30
6988;DHT22;3534;49.960;8.018;2023-06-05T04:02:16;15.20;95.60
6988;DHT22;3534;49.960;8.018;2023-06-05T04:04:43;15.20;95.80
6988;DHT22;3534;49.960;8.018;2023-06-05T04:07:09;15.10;96.30
6988;DHT22;3534;49.960;8.018;2023-06-05T04:09:36;15.10;96.50
6988;DHT22;3534;49.960;8.018;2023-06-05T04:12:03;15.20;97.00
6988;DHT22;3534;49.960;8.018;2023-06-05T04:14:32;15.20;97.10
6988;DHT22;3534;49.960;8.018;2023-06-05T04:16:58;15.10;97.70
6988;DHT22;3534;49.960;8.018;2023-06-05T04:19:25;15.10;98.00
6988;DHT22;3534;49.960;8.018;2023-06-05T04:21:52;15.10;98.40
6988;DHT22;3534;49.960;8.018;2023-06-05T04:24:18;15.10;98.90
6988;DHT22;3534;49.960;8.018;2023-06-05T04:26:45;15.10;98.80
6988;DHT22;3534;49.960;8.018;2023-06-05T04:29:13;15.10;99.50
6988;DHT22;3534;49.960;8.018;2023-06-05T04:31:43;15.10;99.90
6988;DHT22;3534;49.960;8.018;2023-06-05T04:34:10;15.10;99.90
6988;DHT22;3534;49.960;8.018;2023-06-05T04:36:37;15.10;99.90
6988;DHT22;3534;49.960;8.018;2023-06-05T04:39:04;15.10;99.90
6988;DHT22;3534;49.960;8.018;2023-06-05T04:41:36;15.10;99.90
6988;DHT22;3534;49.960;8.018;2023-06-05T04:44:10;15.10;99.90
6988;DHT22;3534;49.960;8.018;2023-06-05T04:46:37;15.10;99.90
6988;DHT22;3534;49.960;8.018;2023-06-05T04:49:06;15.10;99.90
6988;DHT22;3534;49.960;8.018;2023-06-05T04:51:32;15.20;99.90
6988;DHT22;3534;49.960;8.018;2023-06-05T04:53:59;15.20;99.90
6988;DHT22;3534;49.960;8.018;2023-06-05T04:56:27;15.30;99.90
6988;DHT22;3534;49.960;8.018;2023-06-05T04:58:53;15.30;99.90
6988;DHT22;3534;49.960;8.018;2023-06-05T05:01:20;15.30;99.90
6988;DHT22;3534;49.960;8.018;2023-06-05T05:03:47;15.40;99.90
6988;DHT22;3534;49.960;8.018;2023-06-05T05:06:16;15.40;99.90
6988;DHT22;3534;49.960;8.018;2023-06-05T05:08:43;15.40;99.90
6988;DHT22;3534;49.960;8.018;2023-06-05T05:11:11;15.50;99.90
6988;DHT22;3534;49.960;8.018;2023-06-05T05:13:38;15.50;99.90
6988;DHT22;3534;49.960;8.018;2023-06-05T05:16:04;15.60;99.90
6988;DHT22;3534;49.960;8.018;2023-06-05T05:18:33;15.60;99.90
6988;DHT22;3534;49.960;8.018;2023-06-05T05:20:59;15.60;99.90
6988;DHT22;3534;49.960;8.018;2023-06-05T05:23:29;15.70;99.90
6988;DHT22;3534;49.960;8.018;2023-06-05T05:25:55;15.80;99.90
6988;DHT22;3534;49.960;8.018;2023-06-05T05:28:22;15.80;99.90
6988;DHT22;3534;49.960;8.018;2023-06-05T05:30:48;15.90;99.90
6988;DHT22;3534;49.960;8.018;2023-06-05T05:33:15;15.90;99.90
6988;DHT22;3534;49.960;8.018;2023-06-05T05:35:42;16.00;99.90
6988;DHT22;3534;49.960;8.018;2023-06-05T05:38:08;16.10;99.90
6988;DHT22;3534;49.960;8.018;2023-06-05T05:40:36;16.10;99.90
6988;DHT22;3534;49.960;8.018;2023-06-05T05:43:03;16.20;99.90
6988;DHT22;3534;49.960;8.018;2023-06-05T05:45:30;16.30;99.90
6988;DHT22;3534;49.960;8.018;2023-06-05T05:47:56;16.30;99.90
6988;DHT22;3534;49.960;8.018;2023-06-05T05:50:23;16.40;99.90
6988;DHT22;3534;49.960;8.018;2023-06-05T05:52:50;16.40;99.90
6988;DHT22;3534;49.960;8.018;2023-06-05T05:55:18;16.50;99.90
6988;DHT22;3534;49.960;8.018;2023-06-05T05:57:46;16.60;99.90
6988;DHT22;3534;49.960;8.018;2023-06-05T06:00:14;16.60;99.90
6988;DHT22;3534;49.960;8.018;2023-06-05T06:02:41;16.70;99.60
6988;DHT22;3534;49.960;8.018;2023-06-05T06:05:08;16.70;99.20
6988;DHT22;3534;49.960;8.018;2023-06-05T06:07:37;16.80;98.30
6988;DHT22;3534;49.960;8.018;2023-06-05T06:10:07;16.90;98.50
6988;DHT22;3534;49.960;8.018;2023-06-05T06:12:34;16.90;98.70
6988;DHT22;3534;49.960;8.018;2023-06-05T06:15:04;16.90;99.20
6988;DHT22;3534;49.960;8.018;2023-06-05T06:17:30;17.00;99.30
6988;DHT22;3534;49.960;8.018;2023-06-05T06:19:57;17.00;99.30
6988;DHT22;3534;49.960;8.018;2023-06-05T06:22:24;17.10;98.50
6988;DHT22;3534;49.960;8.018;2023-06-05T06:24:52;17.10;97.60
6988;DHT22;3534;49.960;8.018;2023-06-05T06:27:19;17.10;97.00
6988;DHT22;3534;49.960;8.018;2023-06-05T06:29:47;17.10;96.80
6988;DHT22;3534;49.960;8.018;2023-06-05T06:32:16;17.20;97.60
6988;DHT22;3534;49.960;8.018;2023-06-05T06:34:43;17.20;97.30
6988;DHT22;3534;49.960;8.018;2023-06-05T06:37:10;17.30;95.90
6988;DHT22;3534;49.960;8.018;2023-06-05T06:39:37;17.30;95.70
6988;DHT22;3534;49.960;8.018;2023-06-05T06:42:03;17.40;95.60
6988;DHT22;3534;49.960;8.018;2023-06-05T06:44:30;17.50;95.70
6988;DHT22;3534;49.960;8.018;2023-06-05T06:46:57;17.60;95.20
6988;DHT22;3534;49.960;8.018;2023-06-05T06:49:25;17.60;94.80
6988;DHT22;3534;49.960;8.018;2023-06-05T06:51:51;17.70;95.10
6988;DHT22;3534;49.960;8.018;2023-06-05T06:54:18;17.80;95.20
6988;DHT22;3534;49.960;8.018;2023-06-05T06:56:45;17.90;93.80
6988;DHT22;3534;49.960;8.018;2023-06-05T06:59:11;18.00;94.00
6988;DHT22;3534;49.960;8.018;2023-06-05T07:01:43;18.10;94.60
6988;DHT22;3534;49.960;8.018;2023-06-05T07:04:11;18.20;93.70
6988;DHT22;3534;49.960;8.018;2023-06-05T07:06:43;18.20;92.10
6988;DHT22;3534;49.960;8.018;2023-06-05T07:09:10;18.40;98.60
6988;DHT22;3534;49.960;8.018;2023-06-05T07:11:36;18.50;94.10
6988;DHT22;3534;49.960;8.018;2023-06-05T07:14:03;18.50;91.70
6988;DHT22;3534;49.960;8.018;2023-06-05T07:16:30;18.70;92.10
6988;DHT22;3534;49.960;8.018;2023-06-05T07:18:57;18.70;91.00
6988;DHT22;3534;49.960;8.018;2023-06-05T07:21:24;18.80;96.60
6988;DHT22;3534;49.960;8.018;2023-06-05T07:23:52;18.90;94.70
6988;DHT22;3534;49.960;8.018;2023-06-05T07:26:19;19.00;93.60
6988;DHT22;3534;49.960;8.018;2023-06-05T07:28:47;19.10;93.70
6988;DHT22;3534;49.960;8.018;2023-06-05T07:31:14;19.20;95.00
6988;DHT22;3534;49.960;8.018;2023-06-05T07:33:42;19.20;90.30
6988;DHT22;3534;49.960;8.018;2023-06-05T07:36:09;19.30;95.20
6988;DHT22;3534;49.960;8.018;2023-06-05T07:38:36;19.40;90.90
6988;DHT22;3534;49.960;8.018;2023-06-05T07:41:05;19.50;96.10
6988;DHT22;3534;49.960;8.018;2023-06-05T07:43:32;19.60;94.50
6988;DHT22;3534;49.960;8.018;2023-06-05T07:45:58;19.70;93.40
6988;DHT22;3534;49.960;8.018;2023-06-05T07:48:25;19.70;96.00
6988;DHT22;3534;49.960;8.018;2023-06-05T07:50:51;19.80;88.80
6988;DHT22;3534;49.960;8.018;2023-06-05T07:53:18;19.80;88.90
6988;DHT22;3534;49.960;8.018;2023-06-05T07:55:46;19.90;96.00
6988;DHT22;3534;49.960;8.018;2023-06-05T07:58:15;20.00;88.30
6988;DHT22;3534;49.960;8.018;2023-06-05T08:00:42;20.10;90.00
6988;DHT22;3534;49.960;8.018;2023-06-05T08:03:13;20.10;90.70
6988;DHT22;3534;49.960;8.018;2023-06-05T08:05:46;20.20;85.30
6988;DHT22;3534;49.960;8.018;2023-06-05T08:08:12;20.30;82.90
6988;DHT22;3534;49.960;8.018;2023-06-05T08:10:39;20.40;86.50
6988;DHT22;3534;49.960;8.018;2023-06-05T08:13:06;20.50;76.70
6988;DHT22;3534;49.960;8.018;2023-06-05T08:15:34;20.60;86.00
6988;DHT22;3534;49.960;8.018;2023-06-05T08:18:01;20.60;78.70
6988;DHT22;3534;49.960;8.018;2023-06-05T08:20:28;20.70;79.80
6988;DHT22;3534;49.960;8.018;2023-06-05T08:22:55;20.80;80.10
6988;DHT22;3534;49.960;8.018;2023-06-05T08:25:23;20.80;81.30
6988;DHT22;3534;49.960;8.018;2023-06-05T08:27:49;20.90;90.10
6988;DHT22;3534;49.960;8.018;2023-06-05T08:30:16;20.90;83.50
6988;DHT22;3534;49.960;8.018;2023-06-05T08:32:44;21.00;76.60
6988;DHT22;3534;49.960;8.018;2023-06-05T08:35:11;21.10;75.10
6988;DHT22;3534;49.960;8.018;2023-06-05T08:37:38;21.10;70.50
6988;DHT22;3534;49.960;8.018;2023-06-05T08:40:06;21.30;68.80
6988;DHT22;3534;49.960;8.018;2023-06-05T08:42:36;21.30;68.60
6988;DHT22;3534;49.960;8.018;2023-06-05T08:45:04;21.40;68.60
6988;DHT22;3534;49.960;8.018;2023-06-05T08:47:31;21.50;71.50
6988;DHT22;3534;49.960;8.018;2023-06-05T08:50:02;21.50;75.00
6988;DHT22;3534;49.960;8.018;2023-06-05T08:52:33;21.50;72.10
6988;DHT22;3534;49.960;8.018;2023-06-05T08:55:00;21.60;68.70
6988;DHT22;3534;49.960;8.018;2023-06-05T08:57:28;21.60;74.80
6988;DHT22;3534;49.960;8.018;2023-06-05T08:59:54;21.70;79.60
6988;DHT22;3534;49.960;8.018;2023-06-05T09:02:21;21.80;70.60
6988;DHT22;3534;49.960;8.018;2023-06-05T09:04:48;21.80;77.20
6988;DHT22;3534;49.960;8.018;2023-06-05T09:07:16;21.90;75.60
6988;DHT22;3534;49.960;8.018;2023-06-05T09:09:44;22.00;74.80
6988;DHT22;3534;49.960;8.018;2023-06-05T09:12:10;22.10;75.20
6988;DHT22;3534;49.960;8.018;2023-06-05T09:14:38;22.20;73.40
6988;DHT22;3534;49.960;8.018;2023-06-05T09:17:05;22.20;74.40
6988;DHT22;3534;49.960;8.018;2023-06-05T09:19:38;22.20;69.60
6988;DHT22;3534;49.960;8.018;2023-06-05T09:22:07;22.30;73.80
6988;DHT22;3534;49.960;8.018;2023-06-05T09:24:35;22.30;67.40
6988;DHT22;3534;49.960;8.018;2023-06-05T09:27:03;22.40;67.40
6988;DHT22;3534;49.960;8.018;2023-06-05T09:29:32;22.40;69.70
6988;DHT22;3534;49.960;8.018;2023-06-05T09:32:00;22.50;71.00
6988;DHT22;3534;49.960;8.018;2023-06-05T09:34:28;22.60;76.50
6988;DHT22;3534;49.960;8.018;2023-06-05T09:36:56;22.60;74.60
6988;DHT22;3534;49.960;8.018;2023-06-05T09:39:24;22.70;72.00
6988;DHT22;3534;49.960;8.018;2023-06-05T09:41:53;22.70;82.30
6988;DHT22;3534;49.960;8.018;2023-06-05T09:44:21;22.70;84.00
6988;DHT22;3534;49.960;8.018;2023-06-05T09:46:55;22.80;85.70
6988;DHT22;3534;49.960;8.018;2023-06-05T09:49:25;22.80;79.80
6988;DHT22;3534;49.960;8.018;2023-06-05T09:51:52;22.90;69.80
6988;DHT22;3534;49.960;8.018;2023-06-05T09:54:20;23.00;77.80
6988;DHT22;3534;49.960;8.018;2023-06-05T09:56:48;23.10;74.20
6988;DHT22;3534;49.960;8.018;2023-06-05T09:59:21;23.10;78.20
6988;DHT22;3534;49.960;8.018;2023-06-05T10:01:49;23.10;81.80
6988;DHT22;3534;49.960;8.018;2023-06-05T10:04:20;23.20;75.10
6988;DHT22;3534;49.960;8.018;2023-06-05T10:06:48;23.20;77.20
6988;DHT22;3534;49.960;8.018;2023-06-05T10:09:17;23.20;77.70
6988;DHT22;3534;49.960;8.018;2023-06-05T10:11:48;23.30;80.50
6988;DHT22;3534;49.960;8.018;2023-06-05T10:14:15;23.40;76.00
6988;DHT22;3534;49.960;8.018;2023-06-05T10:16:43;23.40;72.60
6988;DHT22;3534;49.960;8.018;2023-06-05T10:19:11;23.50;71.50
6988;DHT22;3534;49.960;8.018;2023-06-05T10:21:39;23.60;83.60
6988;DHT22;3534;49.960;8.018;2023-06-05T10:24:11;23.60;69.50
6988;DHT22;3534;49.960;8.018;2023-06-05T10:27:04;23.70;67.20
6988;DHT22;3534;49.960;8.018;2023-06-05T10:30:15;23.80;70.50
6988;DHT22;3534;49.960;8.018;2023-06-05T10:32:58;23.90;71.00
6988;DHT22;3534;49.960;8.018;2023-06-05T10:35:37;23.90;75.50
6988;DHT22;3534;49.960;8.018;2023-06-05T10:38:15;24.00;77.60
6988;DHT22;3534;49.960;8.018;2023-06-05T10:40:43;24.00;75.10
6988;DHT22;3534;49.960;8.018;2023-06-05T10:43:30;24.00;68.70
6988;DHT22;3534;49.960;8.018;2023-06-05T10:45:59;24.10;74.30
6988;DHT22;3534;49.960;8.018;2023-06-05T10:51:36;24.20;78.10
6988;DHT22;3534;49.960;8.018;2023-06-05T10:54:05;24.30;64.30
6988;DHT22;3534;49.960;8.018;2023-06-05T10:56:57;24.30;71.50
6988;DHT22;3534;49.960;8.018;2023-06-05T10:59:26;24.40;75.70
6988;DHT22;3534;49.960;8.018;2023-06-05T11:02:21;24.40;68.70
6988;DHT22;3534;49.960;8.018;2023-06-05T11:05:08;24.50;62.60
6988;DHT22;3534;49.960;8.018;2023-06-05T11:07:37;24.50;62.80
6988;DHT22;3534;49.960;8.018;2023-06-05T11:10:10;24.60;61.60
6988;DHT22;3534;49.960;8.018;2023-06-05T11:13:00;24.60;66.00
6988;DHT22;3534;49.960;8.018;2023-06-05T11:15:40;24.60;68.00
6988;DHT22;3534;49.960;8.018;2023-06-05T11:18:31;24.70;72.60
6988;DHT22;3534;49.960;8.018;2023-06-05T11:20:58;24.70;67.60
6988;DHT22;3534;49.960;8.018;2023-06-05T11:23:27;24.80;65.40
6988;DHT22;3534;49.960;8.018;2023-06-05T11:28:40;24.90;58.50
6988;DHT22;3534;49.960;8.018;2023-06-05T11:31:07;25.00;70.80
6988;DHT22;3534;49.960;8.018;2023-06-05T11:33:34;25.00;68.90
6988;DHT22;3534;49.960;8.018;2023-06-05T11:36:03;25.10;63.70
6988;DHT22;3534;49.960;8.018;2023-06-05T11:38:31;25.20;58.40
6988;DHT22;3534;49.960;8.018;2023-06-05T11:40:58;25.20;58.10
6988;DHT22;3534;49.960;8.018;2023-06-05T11:43:25;25.20;64.10
6988;DHT22;3534;49.960;8.018;2023-06-05T11:45:54;25.30;62.30
6988;DHT22;3534;49.960;8.018;2023-06-05T11:48:21;25.30;59.90
6988;DHT22;3534;49.960;8.018;2023-06-05T11:50:53;25.40;58.80
6988;DHT22;3534;49.960;8.018;2023-06-05T11:53:20;25.50;57.10
6988;DHT22;3534;49.960;8.018;2023-06-05T11:55:49;25.50;57.10
6988;DHT22;3534;49.960;8.018;2023-06-05T11:58:33;25.60;56.90
6988;DHT22;3534;49.960;8.018;2023-06-05T12:01:05;25.60;57.00
6988;DHT22;3534;49.960;8.018;2023-06-05T12:03:33;25.60;62.80
6988;DHT22;3534;49.960;8.018;2023-06-05T12:06:01;25.70;55.80
6988;DHT22;3534;49.960;8.018;2023-06-05T12:08:29;25.70;55.20
6988;DHT22;3534;49.960;8.018;2023-06-05T12:11:00;25.80;53.30
6988;DHT22;3534;49.960;8.018;2023-06-05T12:13:46;25.80;54.20
6988;DHT22;3534;49.960;8.018;2023-06-05T12:16:13;25.90;54.00
6988;DHT22;3534;49.960;8.018;2023-06-05T12:18:40;25.90;57.20
6988;DHT22;3534;49.960;8.018;2023-06-05T12:21:15;26.00;54.00
6988;DHT22;3534;49.960;8.018;2023-06-05T12:23:45;26.00;51.80
6988;DHT22;3534;49.960;8.018;2023-06-05T12:26:13;26.00;52.10
6988;DHT22;3534;49.960;8.018;2023-06-05T12:28:41;26.00;50.30
6988;DHT22;3534;49.960;8.018;2023-06-05T12:31:08;26.00;59.40
6988;DHT22;3534;49.960;8.018;2023-06-05T12:33:45;26.10;61.00
6988;DHT22;3534;49.960;8.018;2023-06-05T12:36:12;26.20;58.90
6988;DHT22;3534;49.960;8.018;2023-06-05T12:38:40;26.30;52.70
6988;DHT22;3534;49.960;8.018;2023-06-05T12:41:07;26.40;65.70
6988;DHT22;3534;49.960;8.018;2023-06-05T12:43:38;26.50;62.10
6988;DHT22;3534;49.960;8.018;2023-06-05T12:46:05;26.60;56.60
6988;DHT22;3534;49.960;8.018;2023-06-05T12:48:33;26.80;52.90
6988;DHT22;3534;49.960;8.018;2023-06-05T12:51:01;26.90;58.90
6988;DHT22;3534;49.960;8.018;2023-06-05T12:53:28;27.10;57.50
6988;DHT22;3534;49.960;8.018;2023-06-05T12:55:54;27.30;58.70
6988;DHT22;3534;49.960;8.018;2023-06-05T12:58:21;27.50;52.40
6988;DHT22;3534;49.960;8.018;2023-06-05T13:00:49;27.70;50.90
6988;DHT22;3534;49.960;8.018;2023-06-05T13:03:17;27.90;52.00
6988;DHT22;3534;49.960;8.018;2023-06-05T13:05:44;28.10;58.20
6988;DHT22;3534;49.960;8.018;2023-06-05T13:08:11;28.30;50.10
6988;DHT22;3534;49.960;8.018;2023-06-05T13:10:37;28.40;46.50
6988;DHT22;3534;49.960;8.018;2023-06-05T13:13:04;28.50;48.10
6988;DHT22;3534;49.960;8.018;2023-06-05T13:15:31;28.80;50.30
6988;DHT22;3534;49.960;8.018;2023-06-05T13:17:59;29.40;49.30
6988;DHT22;3534;49.960;8.018;2023-06-05T13:20:25;29.90;57.90
6988;DHT22;3534;49.960;8.018;2023-06-05T13:22:52;30.40;55.30
6988;DHT22;3534;49.960;8.018;2023-06-05T13:25:19;30.90;57.80
6988;DHT22;3534;49.960;8.018;2023-06-05T13:27:46;31.40;51.50
6988;DHT22;3534;49.960;8.018;2023-06-05T13:30:12;31.90;58.80
6988;DHT22;3534;49.960;8.018;2023-06-05T13:32:39;32.50;47.20
6988;DHT22;3534;49.960;8.018;2023-06-05T13:35:08;33.00;51.60
6988;DHT22;3534;49.960;8.018;2023-06-05T13:37:36;33.50;40.10
6988;DHT22;3534;49.960;8.018;2023-06-05T13:40:03;33.80;39.90
6988;DHT22;3534;49.960;8.018;2023-06-05T13:42:32;34.20;40.40
6988;DHT22;3534;49.960;8.018;2023-06-05T13:44:59;34.50;40.20
6988;DHT22;3534;49.960;8.018;2023-06-05T13:47:25;35.00;42.00
6988;DHT22;3534;49.960;8.018;2023-06-05T13:49:52;35.20;47.80
6988;DHT22;3534;49.960;8.018;2023-06-05T13:52:21;35.40;45.10
6988;DHT22;3534;49.960;8.018;2023-06-05T13:54:47;35.50;36.20
6988;DHT22;3534;49.960;8.018;2023-06-05T13:57:14;35.70;36.30
6988;DHT22;3534;49.960;8.018;2023-06-05T13:59:42;36.10;37.90
6988;DHT22;3534;49.960;8.018;2023-06-05T14:02:10;36.30;42.10
6988;DHT22;3534;49.960;8.018;2023-06-05T14:04:37;36.60;46.60
6988;DHT22;3534;49.960;8.018;2023-06-05T14:07:05;36.80;39.70
6988;DHT22;3534;49.960;8.018;2023-06-05T14:09:33;37.10;42.60
6988;DHT22;3534;49.960;8.018;2023-06-05T14:12:00;37.30;38.80
6988;DHT22;3534;49.960;8.018;2023-06-05T14:14:27;37.40;36.50
6988;DHT22;3534;49.960;8.018;2023-06-05T14:16:53;37.70;34.90
6988;DHT22;3534;49.960;8.018;2023-06-05T14:19:20;37.90;34.50
6988;DHT22;3534;49.960;8.018;2023-06-05T14:21:47;38.10;33.90
6988;DHT22;3534;49.960;8.018;2023-06-05T14:24:15;38.30;45.00
6988;DHT22;3534;49.960;8.018;2023-06-05T14:26:43;38.50;43.00
6988;DHT22;3534;49.960;8.018;2023-06-05T14:29:09;38.50;37.20
6988;DHT22;3534;49.960;8.018;2023-06-05T14:31:36;38.70;33.40
6988;DHT22;3534;49.960;8.018;2023-06-05T14:34:03;38.20;31.30
6988;DHT22;3534;49.960;8.018;2023-06-05T14:36:29;38.10;36.20
6988;DHT22;3534;49.960;8.018;2023-06-05T14:38:56;38.20;40.90
6988;DHT22;3534;49.960;8.018;2023-06-05T14:41:23;38.10;36.30
6988;DHT22;3534;49.960;8.018;2023-06-05T14:43:51;38.40;39.50
6988;DHT22;3534;49.960;8.018;2023-06-05T14:46:19;38.60;43.20
6988;DHT22;3534;49.960;8.018;2023-06-05T14:48:45;38.90;37.60
6988;DHT22;3534;49.960;8.018;2023-06-05T14:51:12;39.10;32.00
6988;DHT22;3534;49.960;8.018;2023-06-05T14:53:39;39.30;31.50
6988;DHT22;3534;49.960;8.018;2023-06-05T14:56:06;39.40;32.70
6988;DHT22;3534;49.960;8.018;2023-06-05T14:58:32;39.50;30.40
6988;DHT22;3534;49.960;8.018;2023-06-05T15:01:00;39.60;30.70
6988;DHT22;3534;49.960;8.018;2023-06-05T15:03:27;39.50;37.70
6988;DHT22;3534;49.960;8.018;2023-06-05T15:05:53;39.60;37.20
6988;DHT22;3534;49.960;8.018;2023-06-05T15:08:20;39.40;41.60
6988;DHT22;3534;49.960;8.018;2023-06-05T15:10:47;39.30;38.00
6988;DHT22;3534;49.960;8.018;2023-06-05T15:13:14;39.50;37.60
6988;DHT22;3534;49.960;8.018;2023-06-05T15:15:41;39.50;41.60
6988;DHT22;3534;49.960;8.018;2023-06-05T15:18:09;39.60;38.70
6988;DHT22;3534;49.960;8.018;2023-06-05T15:20:36;39.80;35.60
6988;DHT22;3534;49.960;8.018;2023-06-05T15:23:02;39.70;34.00
6988;DHT22;3534;49.960;8.018;2023-06-05T15:25:30;39.80;30.90
6988;DHT22;3534;49.960;8.018;2023-06-05T15:27:58;39.90;32.10
6988;DHT22;3534;49.960;8.018;2023-06-05T15:30:25;40.00;37.90
6988;DHT22;3534;49.960;8.018;2023-06-05T15:32:52;40.00;32.00
6988;DHT22;3534;49.960;8.018;2023-06-05T15:35:20;40.10;35.70
6988;DHT22;3534;49.960;8.018;2023-06-05T15:37:47;40.00;37.20
6988;DHT22;3534;49.960;8.018;2023-06-05T15:40:13;40.10;36.80
6988;DHT22;3534;49.960;8.018;2023-06-05T15:42:43;40.10;30.20
6988;DHT22;3534;49.960;8.018;2023-06-05T15:45:11;40.00;34.60
6988;DHT22;3534;49.960;8.018;2023-06-05T15:47:39;40.10;38.00
6988;DHT22;3534;49.960;8.018;2023-06-05T15:50:06;40.00;41.40
6988;DHT22;3534;49.960;8.018;2023-06-05T15:52:35;39.80;38.40
6988;DHT22;3534;49.960;8.018;2023-06-05T15:55:03;39.60;39.70
6988;DHT22;3534;49.960;8.018;2023-06-05T15:57:29;39.60;37.10
6988;DHT22;3534;49.960;8.018;2023-06-05T15:59:56;39.40;39.10
6988;DHT22;3534;49.960;8.018;2023-06-05T16:02:23;39.20;41.60
6988;DHT22;3534;49.960;8.018;2023-06-05T16:04:51;38.90;37.80
6988;DHT22;3534;49.960;8.018;2023-06-05T16:07:18;38.80;35.80
6988;DHT22;3534;49.960;8.018;2023-06-05T16:09:46;38.70;37.70
6988;DHT22;3534;49.960;8.018;2023-06-05T16:12:12;38.40;31.40
6988;DHT22;3534;49.960;8.018;2023-06-05T16:14:39;38.20;40.20